createdAt,value
2018-01-26T00:00:08.638Z,93561.23
2018-01-26T00:02:35.118Z,93556.75
2018-01-26T00:05:01.822Z,93556.75
2018-01-26T00:07:28.430Z,93552.58
2018-01-26T00:09:55.063Z,93550.90
2018-01-26T00:12:21.668Z,93550.38
2018-01-26T00:14:48.291Z,93549.11
2018-01-26T00:17:14.922Z,93544.96
2018-01-26T00:19:41.515Z,93546.03
2018-01-26T00:22:08.196Z,93550.27
2018-01-26T00:24:35.446Z,93542.09
2018-01-26T00:27:02.048Z,93545.31
2018-01-26T00:29:28.725Z,93546.76
2018-01-26T00:31:55.357Z,93532.58
2018-01-26T00:34:21.946Z,93537.05
2018-01-26T00:36:48.538Z,93540.64
2018-01-26T00:39:15.673Z,93546.81
2018-01-26T00:41:42.311Z,93537.30
2018-01-26T00:44:08.902Z,93545.31
2018-01-26T00:46:35.498Z,93544.15
2018-01-26T00:49:02.370Z,93543.59
2018-01-26T00:51:29.056Z,93534.73
2018-01-26T00:53:55.667Z,93543.96
2018-01-26T00:56:22.250Z,93537.35
2018-01-26T00:58:48.884Z,93534.30
2018-01-26T01:01:15.522Z,93539.23
2018-01-26T01:03:42.143Z,93539.47
2018-01-26T01:06:08.710Z,93538.16
2018-01-26T01:08:35.350Z,93543.19
2018-01-26T01:11:01.931Z,93539.95
2018-01-26T01:13:28.611Z,93543.03
2018-01-26T01:15:55.285Z,93544.54
2018-01-26T01:18:21.879Z,93538.82
2018-01-26T01:20:48.874Z,93533.09
2018-01-26T01:23:15.498Z,93534.47
2018-01-26T01:25:42.194Z,93542.95
2018-01-26T01:28:09.545Z,93536.69
2018-01-26T01:30:36.923Z,93541.61
2018-01-26T01:33:03.554Z,93539.48
2018-01-26T01:35:30.898Z,93536.63
2018-01-26T01:37:57.535Z,93541.82
2018-01-26T01:40:24.343Z,93537.29
2018-01-26T01:42:51.017Z,93534.80
2018-01-26T01:45:17.618Z,93530.73
2018-01-26T01:47:44.219Z,93538.05
2018-01-26T01:50:10.899Z,93535.89
2018-01-26T01:52:37.495Z,93539.64
2018-01-26T01:55:04.074Z,93540.63
2018-01-26T01:57:30.697Z,93538.98
2018-01-26T01:59:57.307Z,93543.13
2018-01-26T02:02:23.906Z,93535.38
2018-01-26T02:04:51.362Z,93539.79
2018-01-26T02:07:17.949Z,93530.24
2018-01-26T02:09:44.522Z,93534.19
2018-01-26T02:12:11.219Z,93531.04
2018-01-26T02:14:38.286Z,93525.61
2018-01-26T02:17:05.583Z,93523.20
2018-01-26T02:19:32.341Z,93521.83
2018-01-26T02:21:58.903Z,93514.58
2018-01-26T02:24:25.491Z,93521.13
2018-01-26T02:26:52.113Z,93522.23
2018-01-26T02:29:18.726Z,93512.48
2018-01-26T02:31:45.389Z,93517.48
2018-01-26T02:34:12.723Z,93510.16
2018-01-26T02:36:39.321Z,93507.16
2018-01-26T02:39:06.099Z,93510.89
2018-01-26T02:41:32.671Z,93502.44
2018-01-26T02:44:00.009Z,93504.70
2018-01-26T02:46:26.655Z,93504.06
2018-01-26T02:48:53.994Z,93499.58
2018-01-26T02:51:20.574Z,93498.20
2018-01-26T02:53:47.163Z,93498.52
2018-01-26T02:56:13.747Z,93491.48
2018-01-26T02:58:40.345Z,93502.91
2018-01-26T03:01:06.934Z,93500.85
2018-01-26T03:03:33.546Z,93490.89
2018-01-26T03:06:00.217Z,93499.00
2018-01-26T03:08:26.818Z,93496.71
2018-01-26T03:10:53.454Z,93494.02
2018-01-26T03:13:20.790Z,93495.16
2018-01-26T03:15:47.465Z,93492.69
2018-01-26T03:18:14.154Z,93495.22
2018-01-26T03:20:40.733Z,93496.13
2018-01-26T03:23:07.338Z,93492.37
2018-01-26T03:25:33.910Z,93492.94
2018-01-26T03:28:00.542Z,93497.59
2018-01-26T03:30:27.145Z,93504.39
2018-01-26T03:32:53.899Z,93505.41
2018-01-26T03:35:21.198Z,93508.78
2018-01-26T03:37:47.766Z,93513.19
2018-01-26T03:40:14.585Z,93517.20
2018-01-26T03:42:41.180Z,93516.09
2018-01-26T03:45:08.587Z,93530.23
2018-01-26T03:47:35.221Z,93530.72
2018-01-26T03:50:01.786Z,93534.99
2018-01-26T03:52:35.284Z,93534.09
2018-01-26T03:55:01.842Z,93540.37
2018-01-26T03:57:28.454Z,93538.80
2018-01-26T03:59:55.076Z,93540.69
2018-01-26T04:02:21.690Z,93539.63
2018-01-26T04:04:48.289Z,93540.98
2018-01-26T04:07:15.698Z,93552.38
2018-01-26T04:09:43.030Z,93553.98
2018-01-26T04:12:09.600Z,93555.66
2018-01-26T04:14:36.210Z,93552.84
2018-01-26T04:17:02.873Z,93560.19
2018-01-26T04:19:30.367Z,93556.50
2018-01-26T04:21:56.962Z,93560.16
2018-01-26T04:24:23.601Z,93557.75
2018-01-26T04:26:50.169Z,93565.00
2018-01-26T04:29:17.538Z,93561.52
2018-01-26T04:31:44.131Z,93562.88
2018-01-26T04:34:10.710Z,93566.77
2018-01-26T04:36:38.054Z,93564.33
2018-01-26T04:39:05.361Z,93565.92
2018-01-26T04:41:31.974Z,93561.94
2018-01-26T04:43:58.566Z,93564.84
2018-01-26T04:46:25.917Z,93557.59
2018-01-26T04:48:52.489Z,93554.50
2018-01-26T04:51:19.058Z,93556.43
2018-01-26T04:53:45.690Z,93551.16
2018-01-26T04:56:12.246Z,93549.83
2018-01-26T04:58:38.903Z,93557.73
2018-01-26T05:01:05.485Z,93557.73
2018-01-26T05:03:32.094Z,93561.23
2018-01-26T05:05:59.434Z,93564.30
2018-01-26T05:08:26.005Z,93560.56
2018-01-26T05:10:52.636Z,93555.75
2018-01-26T05:13:20.175Z,93552.35
2018-01-26T05:15:46.778Z,93557.86
2018-01-26T05:18:13.432Z,93556.97
2018-01-26T05:20:40.019Z,93561.42
2018-01-26T05:23:06.659Z,93557.69
2018-01-26T05:25:33.274Z,93562.33
2018-01-26T05:27:59.878Z,93557.40
2018-01-26T05:30:26.486Z,93561.37
2018-01-26T05:32:53.082Z,93560.30
2018-01-26T05:35:19.748Z,93563.92
2018-01-26T05:37:46.366Z,93565.08
2018-01-26T05:40:12.934Z,93565.56
2018-01-26T05:42:39.598Z,93564.64
2018-01-26T05:45:07.052Z,93564.84
2018-01-26T05:47:33.706Z,93563.13
2018-01-26T05:50:00.465Z,93567.42
2018-01-26T05:52:27.085Z,93570.16
2018-01-26T05:54:53.739Z,93573.49
2018-01-26T05:57:20.351Z,93576.91
2018-01-26T05:59:46.909Z,93577.59
2018-01-26T06:02:14.263Z,93574.27
2018-01-26T06:04:41.569Z,93572.67
2018-01-26T06:07:08.154Z,93582.41
2018-01-26T06:09:35.515Z,93581.39
2018-01-26T06:12:02.081Z,93580.52
2018-01-26T06:14:28.724Z,93584.23
2018-01-26T06:16:55.350Z,93590.23
2018-01-26T06:19:21.949Z,93592.06
2018-01-26T06:21:49.324Z,93589.36
2018-01-26T06:24:15.958Z,93591.70
2018-01-26T06:26:43.099Z,93592.84
2018-01-26T06:29:10.431Z,93592.69
2018-01-26T06:31:37.263Z,93598.41
2018-01-26T06:34:03.874Z,93596.55
2018-01-26T06:36:30.534Z,93599.64
2018-01-26T06:38:57.262Z,93601.13
2018-01-26T06:41:23.837Z,93594.58
2018-01-26T06:43:50.414Z,93603.53
2018-01-26T06:46:17.085Z,93605.48
2018-01-26T06:48:43.669Z,93598.71
2018-01-26T06:51:10.243Z,93606.47
2018-01-26T06:53:36.917Z,93608.12
2018-01-26T06:56:04.360Z,93604.47
2018-01-26T06:58:31.027Z,93611.38
2018-01-26T07:00:57.661Z,93608.61
2018-01-26T07:03:24.246Z,93609.96
2018-01-26T07:05:50.827Z,93614.17
2018-01-26T07:08:17.450Z,93612.65
2018-01-26T07:10:44.037Z,93614.70
2018-01-26T07:13:10.742Z,93627.10
2018-01-26T07:15:37.476Z,93629.06
2018-01-26T07:18:04.250Z,93628.74
2018-01-26T07:20:30.858Z,93630.13
2018-01-26T07:22:58.186Z,93635.39
2018-01-26T07:25:24.785Z,93640.88
2018-01-26T07:27:51.391Z,93638.57
2018-01-26T07:30:18.726Z,93642.61
2018-01-26T07:32:46.060Z,93643.70
2018-01-26T07:35:12.638Z,93634.66
2018-01-26T07:37:39.998Z,93637.61
2018-01-26T07:40:06.607Z,93632.31
2018-01-26T07:42:33.921Z,93636.80
2018-01-26T07:45:00.552Z,93637.81
2018-01-26T07:47:27.146Z,93640.12
2018-01-26T07:49:54.515Z,93643.02
2018-01-26T07:52:21.098Z,93649.21
2018-01-26T07:54:47.706Z,93655.89
2018-01-26T07:57:14.279Z,93654.58
2018-01-26T07:59:41.646Z,93655.70
2018-01-26T08:02:08.686Z,93656.84
2018-01-26T08:04:35.428Z,93659.87
2018-01-26T08:07:02.038Z,93658.08
2018-01-26T08:09:28.644Z,93657.60
2018-01-26T08:11:55.286Z,93650.94
2018-01-26T08:14:22.673Z,93654.06
2018-01-26T08:16:49.275Z,93652.39
2018-01-26T08:19:15.844Z,93653.48
2018-01-26T08:21:43.310Z,93656.99
2018-01-26T08:24:09.906Z,93666.84
2018-01-26T08:26:36.474Z,93661.22
2018-01-26T08:29:03.132Z,93671.98
2018-01-26T08:31:29.782Z,93672.81
2018-01-26T08:33:56.359Z,93680.47
2018-01-26T08:36:22.979Z,93678.95
2018-01-26T08:38:49.553Z,93678.16
2018-01-26T08:41:16.120Z,93673.91
2018-01-26T08:43:42.729Z,93676.85
2018-01-26T08:46:10.045Z,93673.06
2018-01-26T08:48:36.927Z,93680.95
2018-01-26T08:51:03.592Z,93680.53
2018-01-26T08:53:30.254Z,93684.48
2018-01-26T08:55:57.630Z,93683.64
2018-01-26T08:58:24.190Z,93688.04
2018-01-26T09:00:50.828Z,93694.80
2018-01-26T09:03:17.465Z,93685.64
2018-01-26T09:05:44.165Z,93698.20
2018-01-26T09:08:11.596Z,93693.64
2018-01-26T09:10:38.162Z,93698.33
2018-01-26T09:13:04.757Z,93702.44
2018-01-26T09:15:31.467Z,93705.06
2018-01-26T09:17:58.077Z,93707.91
2018-01-26T09:20:24.663Z,93709.98
2018-01-26T09:22:51.276Z,93716.88
2018-01-26T09:25:17.840Z,93717.30
2018-01-26T09:27:44.465Z,93716.42
2018-01-26T09:30:11.226Z,93715.47
2018-01-26T09:32:37.826Z,93727.69
2018-01-26T09:35:04.506Z,93730.63
2018-01-26T09:37:31.084Z,93728.69
2018-01-26T09:39:57.698Z,93727.26
2018-01-26T09:42:24.309Z,93734.11
2018-01-26T09:44:50.931Z,93739.05
2018-01-26T09:47:17.498Z,93736.98
2018-01-26T09:49:44.059Z,93742.64
2018-01-26T09:52:10.667Z,93744.72
2018-01-26T09:54:38.025Z,93748.55
2018-01-26T09:57:04.625Z,93747.65
2018-01-26T09:59:31.184Z,93749.63
2018-01-26T10:01:57.784Z,93752.97
2018-01-26T10:04:24.521Z,93753.61
2018-01-26T10:06:51.163Z,93758.61
2018-01-26T10:09:17.738Z,93756.89
2018-01-26T10:11:44.318Z,93760.41
2018-01-26T10:14:10.943Z,93757.38
2018-01-26T10:16:37.534Z,93751.48
2018-01-26T10:19:04.213Z,93747.89
2018-01-26T10:21:31.554Z,93749.20
2018-01-26T10:23:58.123Z,93758.38
2018-01-26T10:26:24.767Z,93758.92
2018-01-26T10:28:51.368Z,93762.11
2018-01-26T10:31:18.742Z,93762.20
2018-01-26T10:33:45.371Z,93766.14
2018-01-26T10:36:11.951Z,93759.08
2018-01-26T10:38:38.566Z,93762.43
2018-01-26T10:41:05.142Z,93770.36
2018-01-26T10:43:31.699Z,93767.33
2018-01-26T10:45:59.079Z,93770.02
2018-01-26T10:48:25.678Z,93775.26
2018-01-26T10:50:52.266Z,93770.28
2018-01-26T10:53:18.902Z,93768.95
2018-01-26T10:55:45.485Z,93770.70
2018-01-26T10:58:12.079Z,93776.42
2018-01-26T11:00:38.674Z,93776.66
2018-01-26T11:03:06.027Z,93781.88
2018-01-26T11:05:33.359Z,93782.08
2018-01-26T11:08:00.110Z,93784.01
2018-01-26T11:10:26.685Z,93787.53
2018-01-26T11:12:53.292Z,93786.45
2018-01-26T11:15:19.876Z,93788.09
2018-01-26T11:17:46.498Z,93791.11
2018-01-26T11:20:13.099Z,93793.72
2018-01-26T11:22:39.775Z,93792.67
2018-01-26T11:25:06.379Z,93795.20
2018-01-26T11:27:33.715Z,93790.99
2018-01-26T11:30:00.351Z,93795.14
2018-01-26T11:32:26.963Z,93796.77
2018-01-26T11:34:53.634Z,93800.11
2018-01-26T11:37:20.237Z,93790.23
2018-01-26T11:39:46.826Z,93794.17
2018-01-26T11:42:13.454Z,93789.42
2018-01-26T11:44:40.789Z,93792.14
2018-01-26T11:47:07.357Z,93798.09
2018-01-26T11:49:33.949Z,93799.59
2018-01-26T11:52:00.578Z,93806.66
2018-01-26T11:54:27.214Z,93806.23
2018-01-26T11:56:53.901Z,93801.38
2018-01-26T11:59:21.224Z,93810.87
2018-01-26T12:01:47.786Z,93804.06
2018-01-26T12:04:15.218Z,93799.05
2018-01-26T12:06:41.898Z,93799.51
2018-01-26T12:09:08.482Z,93804.13
2018-01-26T12:11:35.091Z,93800.27
2018-01-26T12:14:01.737Z,93795.86
2018-01-26T12:16:28.332Z,93792.08
2018-01-26T12:18:55.704Z,93794.39
2018-01-26T12:21:22.314Z,93790.22
2018-01-26T12:23:48.930Z,93785.71
2018-01-26T12:26:15.575Z,93791.08
2018-01-26T12:28:42.198Z,93789.63
2018-01-26T12:31:08.822Z,93788.22
2018-01-26T12:33:35.407Z,93792.25
2018-01-26T12:36:02.032Z,93793.31
2018-01-26T12:38:29.362Z,93788.16
2018-01-26T12:40:55.998Z,93785.81
2018-01-26T12:43:22.604Z,93793.56
2018-01-26T12:45:49.280Z,93791.39
2018-01-26T12:48:15.878Z,93795.68
2018-01-26T12:50:42.484Z,93798.12
2018-01-26T12:53:09.839Z,93795.63
2018-01-26T12:55:37.237Z,93794.43
2018-01-26T12:58:03.881Z,93799.81
2018-01-26T13:00:31.150Z,93799.50
2018-01-26T13:02:57.907Z,93809.53
2018-01-26T13:05:24.509Z,93807.91
2018-01-26T13:07:51.113Z,93811.92
2018-01-26T13:10:18.205Z,93811.11
2018-01-26T13:12:44.827Z,93813.88
2018-01-26T13:15:11.398Z,93816.81
2018-01-26T13:17:38.004Z,93822.28
2018-01-26T13:20:04.666Z,93817.13
2018-01-26T13:22:31.320Z,93820.81
2018-01-26T13:24:58.685Z,93820.33
2018-01-26T13:27:26.054Z,93819.63
2018-01-26T13:29:52.642Z,93825.37
2018-01-26T13:32:19.265Z,93827.21
2018-01-26T13:34:45.857Z,93820.17
2018-01-26T13:37:13.234Z,93828.09
2018-01-26T13:39:39.834Z,93821.58
2018-01-26T13:42:07.310Z,93827.28
2018-01-26T13:44:34.758Z,93835.05
2018-01-26T13:47:01.475Z,93832.80
2018-01-26T13:49:28.169Z,93836.30
2018-01-26T13:51:54.891Z,93835.05
2018-01-26T13:54:21.488Z,93836.97
2018-01-26T13:56:48.067Z,93835.66
2018-01-26T13:59:14.782Z,93839.16
2018-01-26T14:01:41.429Z,93839.08
2018-01-26T14:04:08.771Z,93843.92
2018-01-26T14:06:35.407Z,93847.26
2018-01-26T14:09:02.123Z,93849.06
2018-01-26T14:11:28.772Z,93856.89
2018-01-26T14:13:55.410Z,93852.16
2018-01-26T14:16:22.758Z,93872.13
2018-01-26T14:18:50.705Z,93863.05
2018-01-26T14:21:17.320Z,93868.58
2018-01-26T14:23:43.934Z,93868.28
2018-01-26T14:26:10.550Z,93873.96
2018-01-26T14:28:37.139Z,93882.09
2018-01-26T14:31:03.838Z,93874.16
2018-01-26T14:33:30.438Z,93881.02
2018-01-26T14:35:57.138Z,93887.23
2018-01-26T14:38:23.759Z,93884.39
2018-01-26T14:40:50.413Z,93888.00
2018-01-26T14:43:17.012Z,93891.94
2018-01-26T14:45:44.394Z,93888.03
2018-01-26T14:48:11.007Z,93890.55
2018-01-26T14:50:38.396Z,93893.57
2018-01-26T14:53:05.037Z,93897.05
2018-01-26T14:55:31.723Z,93893.05
2018-01-26T14:57:58.318Z,93894.69
2018-01-26T15:00:25.034Z,93899.72
2018-01-26T15:02:51.668Z,93906.35
2018-01-26T15:05:18.275Z,93912.31
2018-01-26T15:07:45.683Z,93913.22
2018-01-26T15:10:12.390Z,93915.29
2018-01-26T15:12:39.825Z,93919.13
2018-01-26T15:15:06.420Z,93931.59
2018-01-26T15:17:33.118Z,93931.36
2018-01-26T15:20:00.473Z,93935.75
2018-01-26T15:22:27.841Z,93938.94
2018-01-26T15:24:55.284Z,93939.15
2018-01-26T15:27:22.737Z,93936.67
2018-01-26T15:29:50.098Z,93941.35
2018-01-26T15:32:17.583Z,93935.63
2018-01-26T15:34:44.202Z,93935.86
2018-01-26T15:37:11.619Z,93940.53
2018-01-26T15:39:38.204Z,93938.48
2018-01-26T15:42:04.859Z,93933.92
2018-01-26T15:44:31.492Z,93943.20
2018-01-26T15:46:58.151Z,93939.98
2018-01-26T15:49:24.734Z,93952.42
2018-01-26T15:51:51.402Z,93948.31
2018-01-26T15:54:18.041Z,93950.39
2018-01-26T15:56:44.774Z,93953.21
2018-01-26T15:59:11.387Z,93955.91
2018-01-26T16:01:38.780Z,93960.31
2018-01-26T16:04:05.363Z,93961.94
2018-01-26T16:06:32.791Z,93969.53
2018-01-26T16:08:59.427Z,93976.83
2018-01-26T16:11:26.106Z,93980.28
2018-01-26T16:13:52.783Z,93981.09
2018-01-26T16:16:19.541Z,93987.74
2018-01-26T16:18:46.166Z,93994.32
2018-01-26T16:21:12.770Z,94002.55
2018-01-26T16:23:39.423Z,94000.88
2018-01-26T16:26:06.056Z,94003.48
2018-01-26T16:28:33.599Z,93996.59
2018-01-26T16:31:00.263Z,93998.03
2018-01-26T16:33:27.061Z,93997.69
2018-01-26T16:35:54.520Z,94003.73
2018-01-26T16:38:21.182Z,94010.37
2018-01-26T16:40:47.897Z,94014.38
2018-01-26T16:43:14.562Z,94012.97
2018-01-26T16:45:41.919Z,94014.71
2018-01-26T16:48:08.630Z,94021.45
2018-01-26T16:50:35.283Z,94026.88
2018-01-26T16:53:01.975Z,94020.75
2018-01-26T16:55:28.603Z,94032.56
2018-01-26T16:57:55.452Z,94036.87
2018-01-26T17:00:22.166Z,94046.14
2018-01-26T17:02:48.861Z,94052.02
2018-01-26T17:05:15.663Z,94058.81
2018-01-26T17:07:42.351Z,94056.93
2018-01-26T17:10:09.680Z,94065.52
2018-01-26T17:12:36.311Z,94059.13
2018-01-26T17:15:02.928Z,94065.77
2018-01-26T17:17:29.570Z,94063.80
2018-01-26T17:19:56.154Z,94070.07
2018-01-26T17:22:22.737Z,94080.98
2018-01-26T17:24:50.199Z,94076.41
2018-01-26T17:27:16.921Z,94080.34
2018-01-26T17:29:43.564Z,94087.44
2018-01-26T17:32:10.154Z,94096.70
2018-01-26T17:34:36.906Z,94099.97
2018-01-26T17:37:04.375Z,94108.37
2018-01-26T17:39:31.731Z,94110.47
2018-01-26T17:41:58.362Z,94110.21
2018-01-26T17:44:25.024Z,94121.61
2018-01-26T17:46:52.375Z,94115.35
2018-01-26T17:49:18.982Z,94113.72
2018-01-26T17:51:46.382Z,94120.05
2018-01-26T17:54:13.089Z,94113.65
2018-01-26T17:56:40.463Z,94124.61
2018-01-26T17:59:07.126Z,94128.52
2018-01-26T18:01:34.556Z,94132.66
2018-01-26T18:04:01.242Z,94133.86
2018-01-26T18:06:27.918Z,94139.50
2018-01-26T18:08:54.536Z,94142.64
2018-01-26T18:11:21.910Z,94146.69
2018-01-26T18:13:48.522Z,94150.00
2018-01-26T18:16:15.286Z,94154.43
2018-01-26T18:18:41.883Z,94163.76
2018-01-26T18:21:08.508Z,94160.34
2018-01-26T18:23:36.051Z,94162.94
2018-01-26T18:26:02.760Z,94165.14
2018-01-26T18:28:29.398Z,94167.27
2018-01-26T18:30:56.773Z,94177.52
2018-01-26T18:33:23.409Z,94182.02
2018-01-26T18:35:50.723Z,94182.47
2018-01-26T18:38:18.114Z,94185.16
2018-01-26T18:40:44.742Z,94190.84
2018-01-26T18:43:11.322Z,94191.09
2018-01-26T18:45:37.970Z,94193.55
2018-01-26T18:48:04.663Z,94197.95
2018-01-26T18:50:31.380Z,94203.56
2018-01-26T18:52:58.782Z,94205.88
2018-01-26T18:55:25.414Z,94210.47
2018-01-26T18:57:51.999Z,94219.52
2018-01-26T19:00:19.393Z,94216.92
2018-01-26T19:02:46.039Z,94222.14
2018-01-26T19:05:12.647Z,94225.82
2018-01-26T19:07:39.354Z,94229.46
2018-01-26T19:10:05.958Z,94228.92
2018-01-26T19:12:33.376Z,94232.40
2018-01-26T19:14:59.981Z,94232.60
2018-01-26T19:17:26.650Z,94234.09
2018-01-26T19:19:53.988Z,94232.73
2018-01-26T19:22:21.382Z,94231.84
2018-01-26T19:24:48.027Z,94234.97
2018-01-26T19:27:14.694Z,94241.70
2018-01-26T19:29:41.420Z,94245.06
2018-01-26T19:32:08.130Z,94247.40
2018-01-26T19:34:36.947Z,94253.91
2018-01-26T19:37:03.651Z,94252.44
2018-01-26T19:39:30.406Z,94260.52
2018-01-26T19:41:57.040Z,94255.88
2018-01-26T19:44:23.757Z,94261.80
2018-01-26T19:46:50.393Z,94258.52
2018-01-26T19:49:17.738Z,94258.52
2018-01-26T19:51:45.081Z,94260.43
2018-01-26T19:54:11.748Z,94260.72
2018-01-26T19:56:38.354Z,94260.23
2018-01-26T19:59:05.744Z,94258.59
2018-01-26T20:01:32.427Z,94268.19
2018-01-26T20:04:03.683Z,94266.45
2018-01-26T20:06:55.591Z,94276.19
2018-01-26T20:09:25.163Z,94271.97
2018-01-26T20:11:58.718Z,94271.97
2018-01-26T20:14:25.417Z,94282.09
2018-01-26T20:16:52.089Z,94282.33
2018-01-26T20:19:18.776Z,94287.05
2018-01-26T20:21:45.466Z,94294.54
2018-01-26T20:24:12.881Z,94286.20
2018-01-26T20:26:39.571Z,94285.77
2018-01-26T20:29:06.199Z,94293.38
2018-01-26T20:31:32.814Z,94293.50
2018-01-26T20:34:00.308Z,94292.49
2018-01-26T20:36:26.890Z,94293.02
2018-01-26T20:38:53.594Z,94293.77
2018-01-26T20:41:20.237Z,94298.11
2018-01-26T20:43:46.860Z,94302.34
2018-01-26T20:46:14.315Z,94302.92
2018-01-26T20:48:40.894Z,94312.94
2018-01-26T20:51:07.631Z,94315.23
2018-01-26T20:53:34.258Z,94329.14
2018-01-26T20:56:00.945Z,94326.95
2018-01-26T20:58:27.594Z,94332.16
2018-01-26T21:00:54.390Z,94328.43
2018-01-26T21:03:21.036Z,94329.32
2018-01-26T21:05:47.658Z,94335.89
2018-01-26T21:08:14.265Z,94330.97
2018-01-26T21:10:40.905Z,94337.86
2018-01-26T21:13:07.522Z,94342.72
2018-01-26T21:15:34.195Z,94339.55
2018-01-26T21:18:00.850Z,94344.75
2018-01-26T21:20:27.424Z,94348.99
2018-01-26T21:22:54.055Z,94348.92
2018-01-26T21:25:20.670Z,94356.11
2018-01-26T21:27:47.287Z,94359.66
2018-01-26T21:30:13.909Z,94356.06
2018-01-26T21:32:40.542Z,94362.00
2018-01-26T21:35:07.976Z,94358.34
2018-01-26T21:37:35.527Z,94364.81
2018-01-26T21:40:02.137Z,94368.02
2018-01-26T21:42:28.760Z,94373.84
2018-01-26T21:44:55.390Z,94378.08
2018-01-26T21:47:21.992Z,94375.34
2018-01-26T21:49:48.651Z,94376.14
2018-01-26T21:52:16.035Z,94374.36
2018-01-26T21:54:42.655Z,94373.74
2018-01-26T21:57:09.259Z,94375.93
2018-01-26T21:59:35.900Z,94371.76
2018-01-26T22:02:02.551Z,94374.35
2018-01-26T22:04:35.182Z,94383.25
2018-01-26T22:07:07.919Z,94390.20
2018-01-26T22:09:34.569Z,94392.08
2018-01-26T22:12:01.171Z,94393.86
2018-01-26T22:14:27.943Z,94391.39
2018-01-26T22:16:54.571Z,94393.27
2018-01-26T22:19:21.162Z,94402.62
2018-01-26T22:21:47.782Z,94403.84
2018-01-26T22:24:14.415Z,94404.70
2018-01-26T22:26:41.082Z,94411.41
2018-01-26T22:29:07.699Z,94409.42
2018-01-26T22:31:34.282Z,94416.43
2018-01-26T22:34:01.636Z,94422.27
2018-01-26T22:36:28.286Z,94430.16
2018-01-26T22:38:54.907Z,94437.47
2018-01-26T22:41:21.502Z,94444.62
2018-01-26T22:43:48.147Z,94446.81
2018-01-26T22:46:14.726Z,94447.94
2018-01-26T22:48:41.398Z,94445.75
2018-01-26T22:51:08.006Z,94444.78
2018-01-26T22:53:34.598Z,94447.17
2018-01-26T22:56:01.181Z,94466.44
2018-01-26T22:58:27.768Z,94467.67
2018-01-26T23:00:54.468Z,94468.03
2018-01-26T23:03:21.126Z,94465.70
2018-01-26T23:05:47.790Z,94471.59
2018-01-26T23:08:14.425Z,94469.37
2018-01-26T23:10:41.180Z,94476.02
2018-01-26T23:13:07.790Z,94480.67
2018-01-26T23:15:34.443Z,94469.55
2018-01-26T23:18:01.057Z,94477.11
2018-01-26T23:20:27.682Z,94485.39
2018-01-26T23:22:54.336Z,94482.23
2018-01-26T23:25:20.957Z,94492.30
2018-01-26T23:27:47.616Z,94479.89
2018-01-26T23:30:14.214Z,94481.17
2018-01-26T23:32:41.755Z,94488.03
2018-01-26T23:35:08.391Z,94492.38
2018-01-26T23:37:34.988Z,94488.13
2018-01-26T23:40:01.601Z,94485.25
2018-01-26T23:42:28.206Z,94489.41
2018-01-26T23:44:54.833Z,94479.62
2018-01-26T23:47:21.469Z,94492.61
2018-01-26T23:49:48.105Z,94488.80
2018-01-26T23:52:14.700Z,94485.98
2018-01-26T23:54:41.312Z,94494.39
2018-01-26T23:57:07.906Z,94491.68
2018-01-26T23:59:34.567Z,94492.47
